This is the latest recevied weather packets stored in our database for station/object NK0Z-13. If no packets are shown the sender has not sent any weather packets the latest 10 day(s).
| Time | Temp. | Humidity | Pressure | Rain* | Wind** | Luminosity | Snow |
|---|---|---|---|---|---|---|---|
| 1777813761 | 11.11° C | 71% | 1016.9 hPa | 0 mm | - | 165 W/m² | - |
| 1777813161 | 10.56° C | 72% | 1016.7 hPa | 0 mm | - | 136 W/m² | - |
| 1777812561 | 10.56° C | 74% | 1017 hPa | 0 mm | - | 112 W/m² | - |
| 1777811957 | 9.44° C | 75% | 1017 hPa | 0 mm | - | 90 W/m² | - |
| 1777811356 | 8.89° C | 77% | 1017 hPa | 0 mm | - | 70 W/m² | - |
| 1777810757 | 8.33° C | 79% | 1016.7 hPa | 0 mm | - | 52 W/m² | - |
| 1777810155 | 7.78° C | 81% | 1016.7 hPa | 0 mm | - | 29 W/m² | - |
| 1777809550 | 7.22° C | 81% | 1016.7 hPa | 0 mm | - | 22 W/m² | - |
| 1777808946 | 7.22° C | 81% | 1016.7 hPa | 0 mm | - | 15 W/m² | - |
| 1777808345 | 7.78° C | 80% | 1017 hPa | 0 mm | - | 8 W/m² | - |
| 1777807740 | 7.22° C | 80% | 1017 hPa | 0 mm | - | 2 W/m² | - |
| 1777807139 | 7.78° C | 79% | 1017 hPa | 0 mm | - | 0 W/m² | - |
| 1777806539 | 7.78° C | 78% | 1017 hPa | 0 mm | - | 0 W/m² | - |
| 1777805938 | 7.78° C | 77% | 1017.1 hPa | 0 mm | - | 0 W/m² | - |
| 1777805332 | 8.33° C | 76% | 1017.1 hPa | 0 mm | - | 0 W/m² | - |
| 1777804727 | 8.33° C | 76% | 1017.4 hPa | 0 mm | - | 0 W/m² | - |
| 1777804128 | 8.33° C | 75% | 1017.1 hPa | 0 mm | - | 0 W/m² | - |
| 1777803526 | 8.33° C | 75% | 1017.2 hPa | 0 mm | - | 0 W/m² | - |
| 1777802921 | 8.33° C | 74% | 1017.3 hPa | 0 mm | - | 0 W/m² | - |
| 1777802316 | 8.33° C | 74% | 1017.5 hPa | 0 mm | - | 0 W/m² | - |
| 1777801711 | 8.33° C | 73% | 1017.9 hPa | 0 mm | - | 0 W/m² | - |
| 1777801111 | 8.89° C | 72% | 1017.7 hPa | 0 mm | - | 0 W/m² | - |
| 1777800508 | 8.89° C | 70% | 1017.9 hPa | 0 mm | - | 0 W/m² | - |
| 1777799906 | 8.89° C | 70% | 1017.8 hPa | 0 mm | - | 0 W/m² | - |
| 1777799306 | 8.89° C | 70% | 1017.9 hPa | 0 mm | - | 0 W/m² | - |
* Rain latest hour (hover to see other rain measurements)
** Current wind speed in m/s (hover to see current wind gust speed)